Donie, Texas
Current Conditions -  °F | °C
As of 12:55 PM on Thursday 23 Oct 2014 (Local Time) from KLXY Reporting Station
Clear Clear  
Wind Chill: 72°   Ceiling: Unl
Heat Index: 72°   Visibility: 10mi
Dew Point: 56°   Wind: 3mph
Humidity: 58%   Direction: 200°SSW
Pressure: 30.15"   Gusts: NA
Location:  31.48°N, 96.22°W
Report Text: KLXY 231755Z AUTO 20003KT 10SM CLR 22/14 A3015 RMK AO2 T02210136 10221 20150
Loading
Personal Weather Stations






























Interactive Weather Map New forecast layout! Learn more

10-Day Weather Forecast

Advertisements
Track Severe Weather on mobile